createdAt,value
2022-12-11T00:02:06.393Z,54.67
2022-12-11T00:04:33.051Z,52.92
2022-12-11T00:06:59.499Z,49.05
2022-12-11T00:09:26.085Z,55.22
2022-12-11T00:11:52.476Z,60.70
2022-12-11T00:14:18.984Z,50.83
2022-12-11T00:16:47.384Z,52.67
2022-12-11T00:19:13.699Z,56.00
2022-12-11T00:21:40.134Z,56.10
2022-12-11T00:24:06.841Z,53.83
2022-12-11T00:26:33.183Z,59.00
2022-12-11T00:28:59.573Z,56.95
2022-12-11T00:31:25.947Z,58.33
2022-12-11T00:33:52.346Z,49.85
2022-12-11T00:36:20.156Z,51.00
2022-12-11T00:38:46.926Z,50.33
2022-12-11T00:41:13.421Z,55.55
2022-12-11T00:43:39.793Z,58.72
2022-12-11T00:46:06.545Z,52.17
2022-12-11T00:48:33.072Z,56.10
2022-12-11T00:50:59.803Z,53.88
2022-12-11T00:53:26.326Z,55.67
2022-12-11T00:55:52.840Z,63.72
2022-12-11T00:58:19.570Z,56.63
2022-12-11T01:00:45.999Z,60.15
2022-12-11T01:03:13.363Z,56.00
2022-12-11T01:05:39.817Z,54.20
2022-12-11T01:08:07.281Z,60.90
2022-12-11T01:10:34.167Z,60.13
2022-12-11T01:13:02.345Z,56.67
2022-12-11T01:15:30.191Z,50.83
2022-12-11T01:17:57.026Z,48.28
2022-12-11T01:20:24.800Z,49.40
2022-12-11T01:22:55.457Z,52.67
2022-12-11T01:25:21.910Z,52.72
2022-12-11T01:27:50.264Z,50.03
2022-12-11T01:30:19.026Z,48.40
2022-12-11T01:32:45.490Z,46.72
2022-12-11T01:35:12.391Z,46.08
2022-12-11T01:37:39.159Z,46.78
2022-12-11T01:40:06.469Z,51.28
2022-12-11T01:42:32.818Z,48.78
2022-12-11T01:45:17.298Z,49.90
2022-12-11T01:47:44.133Z,49.30
2022-12-11T01:50:11.129Z,50.65
2022-12-11T01:52:37.713Z,51.33
2022-12-11T01:55:04.289Z,56.53
2022-12-11T01:57:30.695Z,55.10
2022-12-11T01:59:57.228Z,50.10
2022-12-11T02:02:29.316Z,49.55
2022-12-11T02:04:55.758Z,52.75
2022-12-11T02:07:22.151Z,48.38
2022-12-11T02:09:48.751Z,54.03
2022-12-11T02:12:33.839Z,50.10
2022-12-11T02:15:23.591Z,38.28
2022-12-11T02:18:00.523Z,46.00
2022-12-11T02:20:36.427Z,49.70
2022-12-11T02:23:20.055Z,48.88
2022-12-11T02:25:51.104Z,47.83
2022-12-11T02:28:36.187Z,41.80
2022-12-11T02:31:10.378Z,47.67
2022-12-11T02:33:42.326Z,44.13
2022-12-11T02:36:09.787Z,43.95
2022-12-11T02:38:39.200Z,43.67
2022-12-11T02:41:07.409Z,40.53
2022-12-11T02:43:34.292Z,39.67
2022-12-11T02:46:03.137Z,42.65
2022-12-11T02:48:30.318Z,46.05
2022-12-11T02:50:57.838Z,40.67
2022-12-11T02:53:28.128Z,48.03
2022-12-11T02:56:01.946Z,47.35
2022-12-11T02:58:30.740Z,49.65
2022-12-11T03:00:57.168Z,52.17
2022-12-11T03:03:23.851Z,52.35
2022-12-11T03:05:50.254Z,44.22
2022-12-11T03:08:18.603Z,50.20
2022-12-11T03:10:45.884Z,51.17
2022-12-11T03:13:13.691Z,49.70
2022-12-11T03:15:40.008Z,48.10
2022-12-11T03:18:06.630Z,46.95
2022-12-11T03:20:35.850Z,44.78
2022-12-11T03:23:08.147Z,50.88
2022-12-11T03:25:57.766Z,52.85
2022-12-11T03:28:30.183Z,51.47
2022-12-11T03:30:56.977Z,46.75
2022-12-11T03:33:25.708Z,44.50
2022-12-11T03:35:54.122Z,53.45
2022-12-11T03:38:42.698Z,45.30
2022-12-11T03:41:10.020Z,48.22
2022-12-11T03:43:37.312Z,44.45
2022-12-11T03:46:05.188Z,41.03
2022-12-11T03:48:33.795Z,46.67
2022-12-11T03:51:02.155Z,45.80
2022-12-11T03:53:28.601Z,45.75
2022-12-11T03:55:56.528Z,48.25
2022-12-11T03:58:22.949Z,44.80
2022-12-11T04:00:49.366Z,44.40
2022-12-11T04:03:18.718Z,44.40
2022-12-11T04:05:49.435Z,42.83
2022-12-11T04:08:16.775Z,45.28
2022-12-11T04:10:43.542Z,41.80
2022-12-11T04:13:10.382Z,48.33
2022-12-11T04:15:37.481Z,45.47
2022-12-11T04:18:23.159Z,41.28
2022-12-11T04:23:53.247Z,66.30
2022-12-11T04:26:20.546Z,55.35
2022-12-11T04:28:48.095Z,52.85
2022-12-11T04:31:18.634Z,47.50
2022-12-11T04:33:46.387Z,52.53
2022-12-11T04:36:13.051Z,44.70
2022-12-11T04:38:39.501Z,54.28
2022-12-11T04:41:10.782Z,62.63
2022-12-11T04:43:37.140Z,40.97
2022-12-11T04:46:06.542Z,62.75
2022-12-11T04:48:33.361Z,44.15
2022-12-11T04:50:59.699Z,55.42
2022-12-11T04:53:26.236Z,48.22
2022-12-11T04:55:52.604Z,60.60
2022-12-11T04:58:18.997Z,61.03
2022-12-11T05:00:45.437Z,48.17
2022-12-11T05:03:11.835Z,43.22
2022-12-11T05:05:38.366Z,56.78
2022-12-11T05:08:04.981Z,49.95
2022-12-11T05:10:34.210Z,47.08
2022-12-11T05:13:03.297Z,46.85
2022-12-11T05:15:29.639Z,41.67
2022-12-11T05:17:55.944Z,43.75
2022-12-11T05:20:22.383Z,46.05
2022-12-11T05:22:48.728Z,45.92
2022-12-11T05:25:15.171Z,42.85
2022-12-11T05:27:41.513Z,45.65
2022-12-11T05:30:10.335Z,42.42
2022-12-11T05:32:36.742Z,42.97
2022-12-11T05:35:03.802Z,46.28
2022-12-11T05:37:30.218Z,39.67
2022-12-11T05:39:56.588Z,34.83
2022-12-11T05:42:27.128Z,36.72
2022-12-11T05:44:55.095Z,32.22
2022-12-11T05:47:21.449Z,41.70
2022-12-11T05:49:47.934Z,25.98
2022-12-11T05:52:14.434Z,30.90
2022-12-11T05:54:40.826Z,26.05
2022-12-11T05:57:07.159Z,36.05
2022-12-11T05:59:33.523Z,36.10
2022-12-11T06:01:59.925Z,31.30
2022-12-11T06:04:26.579Z,27.58
2022-12-11T06:06:55.995Z,29.10
2022-12-11T06:09:22.372Z,30.75
2022-12-11T06:11:48.679Z,34.10
2022-12-11T06:14:15.152Z,29.77
2022-12-11T06:16:41.573Z,30.73
2022-12-11T06:19:12.943Z,27.75
2022-12-11T06:21:39.341Z,35.17
2022-12-11T06:24:06.046Z,29.92
2022-12-11T06:26:32.613Z,29.65
2022-12-11T06:28:59.014Z,30.40
2022-12-11T06:31:25.415Z,28.02
2022-12-11T06:33:51.972Z,28.67
2022-12-11T06:36:19.536Z,29.10
2022-12-11T06:38:46.031Z,28.63
2022-12-11T06:41:12.800Z,27.92
2022-12-11T06:43:40.290Z,26.65
2022-12-11T06:46:07.257Z,25.35
2022-12-11T06:48:33.842Z,29.90
2022-12-11T06:51:00.661Z,27.70
2022-12-11T06:53:27.043Z,24.13
2022-12-11T06:55:53.375Z,27.13
2022-12-11T06:58:19.832Z,28.88
2022-12-11T07:00:46.349Z,25.55
2022-12-11T07:03:13.683Z,28.40
2022-12-11T07:05:40.031Z,31.33
2022-12-11T07:08:07.479Z,29.95
2022-12-11T07:10:33.986Z,31.55
2022-12-11T07:13:00.399Z,30.00
2022-12-11T07:15:26.882Z,30.83
2022-12-11T07:17:53.216Z,34.50
2022-12-11T07:20:19.655Z,33.45
2022-12-11T07:22:46.895Z,51.63
2022-12-11T07:25:13.665Z,99.35
2022-12-11T07:27:41.469Z,38.20
2022-12-11T07:30:08.224Z,74.10
2022-12-11T07:32:34.646Z,87.45
2022-12-11T07:35:01.001Z,36.83
2022-12-11T07:37:27.857Z,33.22
2022-12-11T07:39:54.181Z,50.58
2022-12-11T07:42:20.523Z,38.75
2022-12-11T07:44:46.893Z,27.92
2022-12-11T07:47:13.266Z,42.58
2022-12-11T07:49:39.589Z,73.45
2022-12-11T07:52:05.947Z,100.53
2022-12-11T07:54:34.760Z,65.32
2022-12-11T07:57:01.078Z,40.45
2022-12-11T07:59:27.436Z,41.80
2022-12-11T08:01:53.896Z,49.25
2022-12-11T08:04:20.332Z,30.20
2022-12-11T08:06:47.744Z,28.05
2022-12-11T08:09:21.132Z,32.20
2022-12-11T08:11:51.373Z,27.38
2022-12-11T08:14:18.123Z,35.50
2022-12-11T08:16:44.747Z,27.95
2022-12-11T08:19:11.758Z,30.45
2022-12-11T08:21:38.328Z,29.10
2022-12-11T08:24:04.771Z,27.40
2022-12-11T08:26:31.815Z,27.90
2022-12-11T08:28:58.640Z,26.52
2022-12-11T08:31:25.318Z,25.85
2022-12-11T08:33:51.718Z,28.17
2022-12-11T08:36:22.842Z,30.60
2022-12-11T08:38:49.861Z,26.20
2022-12-11T08:41:17.438Z,27.00
2022-12-11T08:43:44.229Z,25.02
2022-12-11T08:46:10.835Z,27.50
2022-12-11T08:48:38.006Z,25.33
2022-12-11T08:51:05.635Z,27.98
2022-12-11T08:53:32.839Z,28.08
2022-12-11T08:56:06.921Z,27.27
2022-12-11T08:58:33.389Z,27.00
2022-12-11T09:01:00.109Z,26.90
2022-12-11T09:03:26.548Z,28.10
2022-12-11T09:05:52.935Z,27.17
2022-12-11T09:08:19.266Z,24.80
2022-12-11T09:10:45.685Z,27.15
2022-12-11T09:13:12.048Z,24.70
2022-12-11T09:15:40.590Z,28.85
2022-12-11T09:18:07.127Z,25.60
2022-12-11T09:20:33.513Z,30.15
2022-12-11T09:23:01.046Z,26.67
2022-12-11T09:25:27.398Z,27.42
2022-12-11T09:27:53.810Z,29.33
2022-12-11T09:30:20.239Z,30.58
2022-12-11T09:32:46.601Z,28.13
2022-12-11T09:35:13.168Z,27.88
2022-12-11T09:37:39.716Z,28.50
2022-12-11T09:40:07.954Z,29.05
2022-12-11T09:42:53.049Z,28.73
2022-12-11T09:45:19.677Z,30.15
2022-12-11T09:47:50.166Z,35.35
2022-12-11T09:50:22.367Z,30.65
2022-12-11T09:52:54.953Z,30.15
2022-12-11T09:55:25.270Z,28.38
2022-12-11T09:58:00.551Z,32.05
2022-12-11T10:03:02.770Z,28.50
2022-12-11T10:05:37.162Z,28.05
2022-12-11T10:08:12.115Z,30.87
2022-12-11T10:10:43.363Z,30.10
2022-12-11T10:13:21.893Z,29.65
2022-12-11T10:16:01.099Z,28.92
2022-12-11T10:18:28.273Z,29.95
2022-12-11T10:20:54.965Z,28.08
2022-12-11T10:23:23.274Z,24.98
2022-12-11T10:25:57.067Z,25.80
2022-12-11T10:28:23.558Z,25.63
2022-12-11T10:31:01.504Z,31.92
2022-12-11T10:34:00.518Z,34.08
2022-12-11T10:36:30.998Z,42.53
2022-12-11T10:38:57.816Z,40.13
2022-12-11T10:41:27.702Z,35.47
2022-12-11T10:43:54.159Z,29.63
2022-12-11T10:46:20.565Z,32.15
2022-12-11T10:48:53.366Z,34.70
2022-12-11T10:51:21.270Z,32.47
2022-12-11T10:53:51.677Z,35.70
2022-12-11T10:56:24.920Z,33.30
2022-12-11T10:58:51.819Z,27.75
2022-12-11T11:01:21.312Z,42.13
2022-12-11T11:04:13.823Z,29.75
2022-12-11T11:06:40.234Z,27.70
2022-12-11T11:09:25.447Z,46.35
2022-12-11T11:11:51.900Z,45.17
2022-12-11T11:14:20.315Z,41.38
2022-12-11T11:16:47.994Z,33.38
2022-12-11T11:19:20.208Z,47.90
2022-12-11T11:21:48.942Z,33.88
2022-12-11T11:24:23.756Z,38.45
2022-12-11T11:27:12.377Z,37.13
2022-12-11T11:29:37.729Z,32.00
2022-12-11T11:32:24.354Z,33.90
2022-12-11T11:34:50.769Z,30.25
2022-12-11T11:37:45.616Z,25.55
2022-12-11T11:40:32.273Z,27.60
2022-12-11T11:43:07.268Z,27.67
2022-12-11T11:45:37.602Z,32.83
2022-12-11T11:48:28.482Z,26.90
2022-12-11T11:50:54.849Z,25.88
2022-12-11T11:53:26.945Z,27.02
2022-12-11T11:56:05.912Z,29.55
2022-12-11T11:58:40.132Z,25.80
2022-12-11T12:01:12.824Z,39.50
2022-12-11T12:03:39.223Z,30.38
2022-12-11T12:06:37.794Z,38.80
2022-12-11T12:09:20.725Z,27.92
2022-12-11T12:11:53.147Z,26.85
2022-12-11T12:14:51.070Z,25.85
2022-12-11T12:17:09.379Z,26.10
2022-12-11T12:19:38.779Z,23.38
2022-12-11T12:22:09.880Z,27.17
2022-12-11T12:24:54.743Z,26.60
2022-12-11T12:30:22.781Z,21.23
2022-12-11T12:32:49.938Z,23.23
2022-12-11T12:35:24.222Z,26.48
2022-12-11T12:37:50.543Z,25.58
2022-12-11T12:40:39.651Z,25.92
2022-12-11T12:43:17.568Z,26.65
2022-12-11T12:46:05.396Z,28.88
2022-12-11T12:48:32.615Z,29.55
2022-12-11T12:50:59.252Z,31.08
2022-12-11T12:53:28.448Z,34.85
2022-12-11T12:55:55.053Z,33.17
2022-12-11T12:58:27.624Z,32.63
2022-12-11T13:00:54.219Z,25.08
2022-12-11T13:03:29.191Z,19.05
2022-12-11T13:06:02.915Z,26.05
2022-12-11T13:08:33.065Z,27.58
2022-12-11T13:11:05.158Z,25.27
2022-12-11T13:13:33.899Z,25.80
2022-12-11T13:16:24.877Z,27.88
2022-12-11T13:18:51.445Z,28.15
2022-12-11T13:21:26.966Z,29.55
2022-12-11T13:23:53.950Z,28.38
2022-12-11T13:26:30.809Z,29.25
2022-12-11T13:28:58.278Z,32.25
2022-12-11T13:31:33.329Z,34.83
2022-12-11T13:36:31.333Z,26.05
2022-12-11T13:39:17.226Z,28.67
2022-12-11T13:41:45.809Z,28.75
2022-12-11T13:44:18.067Z,28.60
2022-12-11T13:46:44.486Z,30.15
2022-12-11T13:49:18.617Z,26.63
2022-12-11T13:51:51.369Z,26.55
2022-12-11T13:54:18.692Z,32.08
2022-12-11T13:56:59.386Z,35.55
2022-12-11T13:59:30.651Z,36.53
2022-12-11T14:01:58.822Z,31.35
2022-12-11T14:04:25.868Z,41.17
2022-12-11T14:06:52.227Z,44.22
2022-12-11T14:09:20.262Z,36.42
2022-12-11T14:11:49.870Z,39.92
2022-12-11T14:14:23.995Z,38.53
2022-12-11T14:16:51.594Z,37.78
2022-12-11T14:19:19.849Z,38.25
2022-12-11T14:22:00.635Z,35.75
2022-12-11T14:24:27.121Z,37.65
2022-12-11T14:26:54.285Z,40.67
2022-12-11T14:29:38.633Z,41.80
2022-12-11T14:32:06.561Z,39.33
2022-12-11T14:34:33.310Z,38.58
2022-12-11T14:37:00.331Z,30.48
2022-12-11T14:39:28.843Z,38.70
2022-12-11T14:41:55.199Z,36.47
2022-12-11T14:44:23.015Z,37.75
2022-12-11T14:46:54.551Z,45.75
2022-12-11T14:49:20.838Z,35.03
2022-12-11T14:51:48.336Z,36.63
2022-12-11T14:54:20.405Z,36.22
2022-12-11T14:56:47.357Z,32.75
2022-12-11T14:59:28.326Z,41.40
2022-12-11T15:02:02.155Z,33.25
2022-12-11T15:04:30.454Z,34.90
2022-12-11T15:06:57.059Z,37.28
2022-12-11T15:09:36.366Z,35.03
2022-12-11T15:12:11.225Z,38.75
2022-12-11T15:14:41.705Z,35.67
2022-12-11T15:17:12.409Z,36.67
2022-12-11T15:19:40.026Z,40.40
2022-12-11T15:22:08.477Z,38.50
2022-12-11T15:24:37.315Z,34.75
2022-12-11T15:27:03.788Z,36.13
2022-12-11T15:29:30.144Z,40.97
2022-12-11T15:32:00.698Z,33.10
2022-12-11T15:34:31.594Z,33.00
2022-12-11T15:36:57.904Z,38.15
2022-12-11T15:39:24.210Z,32.92
2022-12-11T15:41:50.571Z,37.60
2022-12-11T15:44:19.555Z,32.97
2022-12-11T15:46:46.058Z,35.47
2022-12-11T15:49:13.103Z,34.88
2022-12-11T15:51:42.826Z,33.45
2022-12-11T15:54:09.786Z,34.90
2022-12-11T15:56:36.134Z,31.33
2022-12-11T15:59:04.567Z,30.92
2022-12-11T16:01:30.935Z,33.22
2022-12-11T16:04:01.817Z,31.13
2022-12-11T16:06:31.156Z,35.22
2022-12-11T16:08:57.561Z,32.40
2022-12-11T16:11:23.919Z,35.70
2022-12-11T16:13:50.423Z,31.35
2022-12-11T16:16:16.810Z,30.38
2022-12-11T16:18:43.237Z,36.45
2022-12-11T16:21:09.558Z,31.77
2022-12-11T16:23:35.949Z,33.08
2022-12-11T16:26:09.552Z,32.40
2022-12-11T16:28:35.925Z,36.55
2022-12-11T16:31:02.985Z,35.67
2022-12-11T16:33:29.440Z,41.47
2022-12-11T16:35:55.841Z,36.90
2022-12-11T16:38:22.186Z,37.30
2022-12-11T16:40:48.551Z,36.45
2022-12-11T16:43:14.982Z,38.78
2022-12-11T16:45:42.865Z,40.42
2022-12-11T16:48:09.266Z,34.10
2022-12-11T16:50:39.197Z,33.95
2022-12-11T16:53:05.515Z,35.22
2022-12-11T16:55:31.892Z,36.40
2022-12-11T16:57:58.229Z,37.30
2022-12-11T17:00:25.654Z,42.78
2022-12-11T17:02:52.057Z,44.10
2022-12-11T17:05:18.566Z,41.22
2022-12-11T17:07:45.040Z,40.00
2022-12-11T17:10:11.763Z,35.75
2022-12-11T17:12:38.938Z,42.72
2022-12-11T17:15:05.733Z,46.35
2022-12-11T17:17:32.205Z,39.95
2022-12-11T17:19:58.574Z,46.83
2022-12-11T17:22:25.193Z,39.30
2022-12-11T17:24:51.583Z,40.38
2022-12-11T17:27:17.876Z,41.20
2022-12-11T17:29:49.444Z,41.75
2022-12-11T17:32:16.719Z,42.58
2022-12-11T17:34:43.232Z,43.42
2022-12-11T17:37:09.563Z,42.00
2022-12-11T17:39:36.955Z,49.05
2022-12-11T17:42:03.630Z,43.03
2022-12-11T17:44:31.137Z,47.40
2022-12-11T17:46:58.239Z,45.13
2022-12-11T17:49:24.637Z,44.33
2022-12-11T17:51:53.217Z,43.60
2022-12-11T17:54:23.827Z,49.70
2022-12-11T17:56:57.967Z,42.30
2022-12-11T17:59:24.487Z,51.05
2022-12-11T18:01:50.908Z,49.00
2022-12-11T18:04:17.414Z,49.40
2022-12-11T18:06:43.753Z,48.20
2022-12-11T18:09:10.302Z,47.83
2022-12-11T18:11:36.613Z,46.63
2022-12-11T18:14:03.448Z,44.55
2022-12-11T18:16:31.533Z,44.47
2022-12-11T18:18:58.309Z,46.13
2022-12-11T18:21:26.171Z,45.70
2022-12-11T18:23:52.657Z,49.35
2022-12-11T18:26:19.904Z,52.17
2022-12-11T18:28:47.341Z,50.92
2022-12-11T18:31:13.816Z,50.45
2022-12-11T18:33:41.743Z,52.75
2022-12-11T18:36:08.293Z,52.25
2022-12-11T18:38:34.714Z,52.20
2022-12-11T18:41:05.143Z,54.50
2022-12-11T18:43:31.519Z,59.20
2022-12-11T18:45:57.888Z,47.70
2022-12-11T18:48:24.276Z,52.92
2022-12-11T18:50:51.247Z,54.88
2022-12-11T18:53:18.487Z,63.72
2022-12-11T18:55:46.045Z,58.13
2022-12-11T18:58:13.383Z,54.20
2022-12-11T19:00:40.611Z,56.63
2022-12-11T19:03:07.353Z,58.47
2022-12-11T19:05:33.805Z,63.00
2022-12-11T19:08:00.429Z,63.45
2022-12-11T19:10:27.026Z,62.90
2022-12-11T19:12:53.840Z,60.75
2022-12-11T19:15:23.783Z,56.38
2022-12-11T19:17:50.770Z,55.35
2022-12-11T19:20:48.754Z,59.13
2022-12-11T19:23:03.554Z,69.85
2022-12-11T19:25:29.914Z,65.55
2022-12-11T19:27:57.017Z,61.97
2022-12-11T19:30:23.740Z,55.50
2022-12-11T19:32:50.111Z,54.20
2022-12-11T19:35:17.669Z,59.92
2022-12-11T19:37:44.014Z,59.70
2022-12-11T19:40:10.536Z,65.43
2022-12-11T19:42:36.892Z,65.82
2022-12-11T19:45:03.751Z,60.80
2022-12-11T19:47:30.083Z,64.15
2022-12-11T19:49:56.539Z,65.38
2022-12-11T19:52:22.915Z,62.28
2022-12-11T19:54:51.936Z,64.32
2022-12-11T19:57:18.317Z,62.33
2022-12-11T19:59:44.872Z,61.45
2022-12-11T20:02:11.704Z,57.13
2022-12-11T20:04:38.095Z,58.80
2022-12-11T20:07:04.487Z,57.88
2022-12-11T20:09:30.881Z,61.22
2022-12-11T20:11:57.245Z,60.47
2022-12-11T20:14:24.690Z,57.65
2022-12-11T20:19:39.431Z,65.57
2022-12-11T20:22:05.983Z,61.33
2022-12-11T20:24:32.326Z,62.22
2022-12-11T20:26:58.687Z,62.08
2022-12-11T20:29:24.990Z,56.45
2022-12-11T20:31:51.485Z,62.70
2022-12-11T20:34:18.051Z,60.40
2022-12-11T20:36:44.406Z,63.70
2022-12-11T20:39:10.804Z,56.65
2022-12-11T20:41:37.140Z,60.00
2022-12-11T20:44:03.654Z,57.58
2022-12-11T20:46:29.972Z,58.42
2022-12-11T20:48:58.452Z,58.28
2022-12-11T20:51:26.618Z,53.90
2022-12-11T20:53:58.479Z,59.33
2022-12-11T20:56:27.077Z,56.65
2022-12-11T20:58:53.487Z,63.65
2022-12-11T21:01:22.454Z,60.17
2022-12-11T21:03:49.437Z,60.67
2022-12-11T21:06:25.736Z,57.42
2022-12-11T21:08:52.578Z,62.22
2022-12-11T21:11:18.959Z,59.55
2022-12-11T21:13:45.442Z,59.65
2022-12-11T21:16:11.894Z,61.00
2022-12-11T21:18:38.580Z,66.47
2022-12-11T21:21:05.383Z,59.33
2022-12-11T21:23:32.322Z,65.57
2022-12-11T21:25:58.870Z,64.63
2022-12-11T21:28:33.580Z,75.30
2022-12-11T21:31:20.935Z,70.50
2022-12-11T21:33:48.027Z,82.22
2022-12-11T21:36:15.400Z,65.60
2022-12-11T21:38:42.191Z,59.88
2022-12-11T21:41:13.640Z,69.53
2022-12-11T21:44:00.436Z,69.13
2022-12-11T21:46:29.025Z,69.63
2022-12-11T21:48:55.538Z,66.38
2022-12-11T21:51:23.750Z,74.45
2022-12-11T21:53:50.344Z,78.05
2022-12-11T21:56:20.730Z,66.13
2022-12-11T21:58:47.538Z,75.10
2022-12-11T22:01:16.195Z,72.05
2022-12-11T22:03:42.645Z,72.05
2022-12-11T22:06:10.790Z,63.35
2022-12-11T22:08:37.231Z,65.70
2022-12-11T22:11:04.284Z,74.10
2022-12-11T22:13:31.030Z,70.18
2022-12-11T22:15:57.374Z,68.13
2022-12-11T22:18:27.010Z,69.45
2022-12-11T22:20:54.435Z,65.57
2022-12-11T22:23:20.910Z,64.82
2022-12-11T22:25:47.342Z,68.50
2022-12-11T22:28:14.071Z,68.68
2022-12-11T22:30:40.569Z,68.75
2022-12-11T22:33:07.608Z,69.75
2022-12-11T22:35:34.027Z,73.10
2022-12-11T22:38:00.457Z,73.93
2022-12-11T22:40:26.846Z,74.32
2022-12-11T22:42:53.311Z,61.78
2022-12-11T22:45:19.631Z,67.85
2022-12-11T22:47:45.954Z,69.10
2022-12-11T22:50:12.813Z,63.70
2022-12-11T22:52:39.256Z,69.82
2022-12-11T22:55:06.033Z,72.13
2022-12-11T22:57:32.456Z,71.95
2022-12-11T22:59:58.818Z,67.75
2022-12-11T23:02:25.224Z,64.28
2022-12-11T23:04:51.667Z,75.32
2022-12-11T23:07:18.027Z,69.20
2022-12-11T23:09:44.392Z,72.45
2022-12-11T23:12:10.766Z,71.68
2022-12-11T23:14:37.204Z,74.93
2022-12-11T23:17:03.643Z,74.93
2022-12-11T23:19:30.000Z,75.88
2022-12-11T23:21:57.999Z,68.10
2022-12-11T23:24:24.388Z,70.22
2022-12-11T23:26:50.779Z,66.05
2022-12-11T23:29:17.202Z,69.95
2022-12-11T23:31:43.551Z,70.32
2022-12-11T23:34:09.953Z,65.97
2022-12-11T23:36:36.545Z,61.92
2022-12-11T23:39:03.457Z,65.90
2022-12-11T23:41:32.137Z,73.93
2022-12-11T23:43:58.487Z,69.40
2022-12-11T23:46:25.207Z,67.07
2022-12-11T23:48:52.343Z,74.43
2022-12-11T23:51:19.615Z,68.82
2022-12-11T23:53:46.363Z,73.63
2022-12-11T23:56:26.584Z,75.88
2022-12-11T23:58:53.678Z,79.03
